Chanticleer, Arkansas
Current Conditions -  °F | °C
As of 11:53 AM on Monday 24 Nov 2014 (Local Time) from KGLH Reporting Station
Clear Clear  
Wind Chill: 57°   Ceiling: Unl
Heat Index: 57°   Visibility: 10mi
Dew Point: 34°   Wind: 15mph
Humidity: 42%   Direction: 320°NW
Pressure: 29.95"   Gusts: NA
Location:  33.3324°N, 91.3183°W
Report Text: KGLH 241753Z AUTO 32013KT 10SM CLR 14/01 A2995 RMK AO2 SLP148 T01390011 10139 20100 50017
Loading
Personal Weather Stations






























Interactive Weather Map New forecast layout! Learn more

10-Day Weather Forecast

Advertisements
Track Severe Weather on mobile